Terminal Aerodrome Forecast
Issued by NWS Bismarck, ND

Home | Current Version | Previous Version | Graphics & Text | Print | Product List | Glossary On
Versions: 1 2 3 4 5 6 7 8 9 10 11 12 13 14 15 16 17 18 19 20 21 22
771
FTUS43 KBIS 240535
TAFBIS
TAF
KBIS 240535Z 2406/2506 36008KT P6SM SCT022
     FM241000 36006KT 5SM BR BKN020
     FM241400 34005KT 3SM BR BKN020
     FM241700 33008KT P6SM BKN020
     FM242100 33009KT P6SM BKN070=

USA.gov is the U.S. government's official web portal to all federal, state and local government web resources and services.